Time;durP1;ratioP1;P1;durP2;ratioP2;P2;SDS_P1;SDS_P2;PMS_P1;PMS_P2;Temp;Humidity;BMP_temperature;BMP_pressure;BME280_temperature;BME280_humidity;BME280_pressure;Samples;Min_cycle;Max_cycle;Signal;HPM_P1;HPM_P2
2024/03/31 00:03:45;;;;;;;17.58;11.02;;;;;;;10.26;77.08;98814.47;10346886;28;20030;-80
2024/03/31 00:08:46;;;;;;;20.25;11.32;;;;;;;10.30;77.38;98823.03;10325932;28;20047;-81
2024/03/31 00:13:47;;;;;;;20.33;11.48;;;;;;;10.31;77.12;98806.78;10301975;28;20436;-81
2024/03/31 00:18:48;;;;;;;30.02;13.50;;;;;;;10.21;77.58;98832.88;10313828;28;20039;-79
2024/03/31 00:23:48;;;;;;;19.23;12.77;;;;;;;9.67;80.94;98834.84;10314247;28;20487;-80
2024/03/31 00:28:49;;;;;;;16.15;11.15;;;;;;;9.44;82.28;98846.06;10291401;28;20169;-80
2024/03/31 00:33:50;;;;;;;22.17;12.70;;;;;;;9.48;81.81;98834.03;10299812;28;20409;-80
2024/03/31 00:38:50;;;;;;;19.60;11.60;;;;;;;9.48;81.29;98831.34;10279162;28;20104;-81
2024/03/31 00:43:51;;;;;;;18.25;11.98;;;;;;;9.39;81.21;98826.94;10294387;28;20042;-80
2024/03/31 00:48:52;;;;;;;21.10;12.88;;;;;;;9.38;81.81;98817.22;10313869;28;20654;-81
2024/03/31 00:53:53;;;;;;;23.08;14.55;;;;;;;9.33;81.98;98805.28;10300463;28;20064;-81
2024/03/31 00:58:55;;;;;;;22.20;14.18;;;;;;;9.43;82.70;98801.50;10297712;28;20042;-80
2024/03/31 01:03:56;;;;;;;21.97;13.27;;;;;;;9.51;82.55;98808.75;10286462;28;20097;-78
2024/03/31 01:08:57;;;;;;;19.95;13.60;;;;;;;9.47;82.06;98800.19;10296463;28;20038;-81
2024/03/31 01:13:59;;;;;;;25.60;17.08;;;;;;;9.39;83.00;98816.22;10291373;28;20703;-81
2024/03/31 01:19:00;;;;;;;;;;;;;;;9.40;82.16;98817.06;10296727;28;20054;-81
2024/03/31 01:24:02;;;;;;;24.30;16.15;;;;;;;9.29;83.18;98847.59;10296105;28;20305;-79
2024/03/31 01:29:03;;;;;;;26.60;16.10;;;;;;;9.13;84.53;98842.09;10297028;28;20348;-78
2024/03/31 01:34:04;;;;;;;28.42;15.13;;;;;;;9.23;84.84;98826.78;10309994;28;20050;-80
2024/03/31 01:39:05;;;;;;;25.70;15.02;;;;;;;9.20;83.72;98832.47;10307474;28;20090;-80
2024/03/31 01:44:05;;;;;;;25.75;15.65;;;;;;;9.19;83.60;98830.78;10302822;28;20116;-80
2024/03/31 01:49:06;;;;;;;22.92;15.80;;;;;;;9.18;83.76;98827.25;10292220;28;20055;-79
2024/03/31 01:54:07;;;;;;;27.10;17.40;;;;;;;9.20;83.49;98856.56;10301766;28;20053;-78
2024/03/31 01:59:08;;;;;;;25.20;16.83;;;;;;;9.24;83.83;98849.91;10297909;28;20220;-79
2024/03/31 02:04:09;;;;;;;29.95;18.20;;;;;;;9.29;83.20;98844.91;10306474;28;20126;-80
2024/03/31 02:09:10;;;;;;;26.90;19.10;;;;;;;9.25;82.72;98851.59;10296678;28;20525;-78
2024/03/31 02:14:11;;;;;;;28.98;17.85;;;;;;;9.22;82.57;98849.22;10296335;28;20051;-79
2024/03/31 02:19:12;;;;;;;26.55;17.48;;;;;;;9.23;83.07;98850.91;10309243;28;20046;-79
2024/03/31 02:24:13;;;;;;;25.58;17.10;;;;;;;9.26;82.94;98846.06;10309144;28;20043;-80
2024/03/31 02:29:13;;;;;;;35.17;18.40;;;;;;;9.21;83.22;98856.41;10279768;28;20278;-80
2024/03/31 02:34:14;;;;;;;24.40;16.48;;;;;;;8.78;84.54;98841.06;10326788;28;20053;-77
2024/03/31 02:39:16;;;;;;;21.20;15.57;;;;;;;8.63;85.89;98846.06;10330259;28;20417;-78
2024/03/31 02:44:18;;;;;;;21.20;15.15;;;;;;;8.88;86.09;98841.00;10314327;28;20558;-80
2024/03/31 02:49:19;;;;;;;25.23;18.00;;;;;;;9.12;85.17;98843.09;10320397;28;20035;-79
2024/03/31 02:54:20;;;;;;;31.60;19.25;;;;;;;9.28;84.84;98840.56;10319211;28;20526;-81
2024/03/31 02:59:20;;;;;;;29.95;20.52;;;;;;;9.36;84.17;98851.38;10304646;28;20054;-80
2024/03/31 03:04:21;;;;;;;30.45;19.30;;;;;;;9.32;83.53;98844.59;10292131;28;20056;-81
2024/03/31 03:09:22;;;;;;;30.48;21.25;;;;;;;9.34;83.40;98852.50;10306208;28;20047;-80
2024/03/31 03:14:23;;;;;;;32.95;21.45;;;;;;;9.38;83.70;98851.19;10298127;28;20038;-80
2024/03/31 03:19:24;;;;;;;29.15;20.02;;;;;;;9.37;83.33;98849.53;10308396;28;20920;-81
2024/03/31 03:24:25;;;;;;;29.13;19.80;;;;;;;9.38;83.31;98860.09;10306230;28;20397;-79
2024/03/31 03:29:25;;;;;;;33.35;22.20;;;;;;;9.42;83.68;98860.63;10289279;28;20058;-80
2024/03/31 03:34:26;;;;;;;38.10;24.88;;;;;;;9.44;83.77;98862.16;10272876;28;20047;-80
2024/03/31 03:39:30;;;;;;;32.88;23.67;;;;;;;9.43;83.44;98863.13;10293123;28;20038;-80
2024/03/31 03:44:32;;;;;;;33.17;22.10;;;;;;;9.44;83.84;98864.84;10314235;28;20035;-79
2024/03/31 03:49:32;;;;;;;33.83;23.10;;;;;;;9.38;83.94;98862.78;10303099;28;20043;-80
2024/03/31 03:54:33;;;;;;;41.55;25.38;;;;;;;9.32;83.70;98870.56;10300252;28;20170;-80
2024/03/31 03:59:34;;;;;;;21.75;15.68;;;;;;;8.81;87.34;98873.75;10307302;28;20050;-79
2024/03/31 04:04:36;;;;;;;30.33;17.20;;;;;;;9.06;87.01;98866.81;10316487;28;20038;-79
2024/03/31 04:09:37;;;;;;;25.58;17.55;;;;;;;9.13;87.25;98864.34;10293090;28;20038;-79
2024/03/31 04:14:37;;;;;;;25.50;15.93;;;;;;;9.15;87.51;98864.22;10297178;28;20046;-80
2024/03/31 04:19:38;;;;;;;20.98;15.70;;;;;;;9.02;88.64;98859.22;10299439;28;20113;-80
2024/03/31 04:24:39;;;;;;;27.38;17.00;;;;;;;8.97;90.07;98851.66;10299230;28;20051;-80
2024/03/31 04:29:40;;;;;;;29.38;18.38;;;;;;;9.04;91.58;98851.88;10296657;28;20046;-80
2024/03/31 04:34:41;;;;;;;28.55;19.48;;;;;;;9.06;93.14;98847.22;10287764;28;20123;-80
2024/03/31 04:39:42;;;;;;;30.75;22.02;;;;;;;9.03;95.21;98848.38;10281942;28;20046;-79
2024/03/31 04:44:43;;;;;;;40.10;23.02;;;;;;;8.96;96.33;98841.09;10301168;28;20420;-81
2024/03/31 04:49:45;;;;;;;32.90;24.02;;;;;;;8.91;98.65;98848.72;10277981;28;20051;-79
2024/03/31 04:54:46;;;;;;;40.38;27.45;;;;;;;8.87;100.00;98855.38;10301254;28;20049;-78
2024/03/31 04:59:47;;;;;;;48.05;28.48;;;;;;;8.76;100.00;98853.75;10294127;28;20043;-81
2024/03/31 05:04:48;;;;;;;44.55;29.70;;;;;;;8.55;100.00;98854.84;10294115;28;20325;-78
2024/03/31 05:09:49;;;;;;;48.25;29.63;;;;;;;8.57;100.00;98852.03;10322339;28;20057;-77
2024/03/31 05:14:51;;;;;;;41.95;28.88;;;;;;;8.69;100.00;98858.03;10300427;28;20046;-80
2024/03/31 05:19:52;;;;;;;41.97;26.95;;;;;;;8.74;100.00;98853.91;10299052;28;20548;-80
2024/03/31 05:24:53;;;;;;;46.47;29.80;;;;;;;8.73;100.00;98854.06;10293430;28;20042;-79
2024/03/31 05:29:54;;;;;;;44.28;29.92;;;;;;;8.73;100.00;98835.31;10291607;28;20050;-81
2024/03/31 05:34:55;;;;;;;44.33;28.25;;;;;;;8.74;100.00;98843.19;10297480;28;20479;-81
2024/03/31 05:39:56;;;;;;;46.22;30.92;;;;;;;8.75;100.00;98844.91;10328267;28;20053;-82
2024/03/31 05:44:57;;;;;;;43.35;28.20;;;;;;;8.83;100.00;98844.13;10289972;28;20041;-82
2024/03/31 05:49:59;;;;;;;42.65;28.80;;;;;;;8.82;100.00;98848.63;10292911;28;20247;-81
2024/03/31 05:55:00;;;;;;;43.50;29.15;;;;;;;8.81;100.00;98846.13;10279387;28;20084;-82
2024/03/31 06:00:02;;;;;;;46.90;31.70;;;;;;;8.83;100.00;98852.16;10293591;28;20051;-80
2024/03/31 06:05:13;;;;;;;;;;;;;;;8.82;100.00;98842.44;10297401;28;20043;-80
2024/03/31 06:10:16;;;;;;;42.38;29.38;;;;;;;8.85;100.00;98842.13;10291949;28;19969;-79
2024/03/31 06:15:17;;;;;;;42.50;28.80;;;;;;;8.86;100.00;98848.34;10283547;28;20062;-82
2024/03/31 06:20:19;;;;;;;39.50;24.58;;;;;;;8.82;100.00;98845.13;10298317;28;20563;-81
2024/03/31 06:25:20;;;;;;;31.80;21.45;;;;;;;8.64;100.00;98842.44;10278969;28;20050;-80
2024/03/31 06:30:24;;;;;;;31.85;21.15;;;;;;;8.75;100.00;98844.03;10294606;28;20612;-80
2024/03/31 06:35:25;;;;;;;30.90;22.38;;;;;;;8.75;100.00;98847.56;10289793;28;20106;-80
2024/03/31 06:40:26;;;;;;;28.15;21.58;;;;;;;8.90;100.00;98844.38;10287349;28;20212;-79
2024/03/31 06:45:28;;;;;;;36.03;25.35;;;;;;;8.91;100.00;98843.38;10303125;28;20100;-81
2024/03/31 06:50:29;;;;;;;39.55;26.77;;;;;;;8.94;100.00;98843.06;10316283;28;20065;-80
2024/03/31 06:55:30;;;;;;;39.42;26.95;;;;;;;8.94;100.00;98846.59;10308791;28;20053;-81
2024/03/31 07:00:31;;;;;;;19.25;13.30;;;;;;;8.98;100.00;98850.66;10297126;28;20066;-80
2024/03/31 07:05:32;;;;;;;33.33;22.52;;;;;;;8.96;100.00;98858.00;10296969;28;20038;-82
2024/03/31 07:10:33;;;;;;;32.08;23.98;;;;;;;9.03;100.00;98860.94;10301815;28;20047;-80
2024/03/31 07:15:34;;;;;;;32.00;22.15;;;;;;;8.96;100.00;98852.63;10294973;28;20043;-78
2024/03/31 07:20:35;;;;;;;38.30;22.75;;;;;;;8.97;100.00;98850.81;10322580;28;20047;-78
2024/03/31 07:25:36;;;;;;;39.53;22.38;;;;;;;8.99;100.00;98860.34;10329406;28;20065;-81
2024/03/31 07:30:37;;;;;;;42.67;24.25;;;;;;;8.91;100.00;98868.31;10314520;28;20038;-81
2024/03/31 07:35:38;;;;;;;48.58;29.42;;;;;;;8.90;100.00;98877.34;10325176;28;20073;-81
2024/03/31 07:40:39;;;;;;;58.45;32.78;;;;;;;8.81;100.00;98872.91;10300188;28;20046;-79
2024/03/31 07:45:40;;;;;;;56.47;33.28;;;;;;;8.86;100.00;98875.09;10306802;28;20217;-77
2024/03/31 07:50:41;;;;;;;59.63;37.28;;;;;;;8.84;100.00;98872.59;10318211;28;20042;-80
2024/03/31 07:55:42;;;;;;;64.50;38.35;;;;;;;8.80;100.00;98869.38;10289196;28;20034;-80
2024/03/31 08:00:42;;;;;;;67.63;41.17;;;;;;;8.89;100.00;98872.16;10307818;28;20046;-80
2024/03/31 08:05:43;;;;;;;69.65;41.28;;;;;;;8.91;100.00;98876.34;10304102;28;20046;-79
2024/03/31 08:10:45;;;;;;;62.80;42.63;;;;;;;8.84;100.00;98865.41;10305359;28;20038;-78
2024/03/31 08:15:45;;;;;;;65.05;43.63;;;;;;;8.89;100.00;98870.31;10311505;28;20104;-79
2024/03/31 08:20:49;;;;;;;69.90;44.35;;;;;;;9.09;100.00;98863.00;10300147;28;20108;-79
2024/03/31 08:25:53;;;;;;;71.10;46.17;;;;;;;9.45;100.00;98853.09;10319117;28;20041;-78
2024/03/31 08:30:55;;;;;;;69.63;43.13;;;;;;;9.47;100.00;98848.44;10302575;28;20512;-78
2024/03/31 08:35:55;;;;;;;69.13;43.75;;;;;;;9.38;100.00;98844.00;10308246;28;20413;-78
2024/03/31 08:41:04;;;;;;;63.92;41.90;;;;;;;9.39;100.00;98832.28;10292184;28;20073;-79
2024/03/31 08:46:08;;;;;;;55.00;38.60;;;;;;;9.49;100.00;98835.72;10299914;28;20051;-79
2024/03/31 08:51:09;;;;;;;60.55;38.78;;;;;;;9.83;100.00;98831.44;10288217;28;20050;-78
2024/03/31 08:56:10;;;;;;;51.80;34.78;;;;;;;10.08;100.00;98835.16;10297428;28;20047;-79
2024/03/31 09:01:13;;;;;;;49.58;35.15;;;;;;;9.99;100.00;98841.47;10299535;28;20071;-79
2024/03/31 09:06:14;;;;;;;47.58;32.80;;;;;;;10.42;100.00;98843.19;10282494;28;20046;-80
2024/03/31 09:11:15;;;;;;;44.17;31.73;;;;;;;10.45;100.00;98850.09;10314103;28;20046;-79
2024/03/31 09:16:16;;;;;;;47.42;31.23;;;;;;;10.31;100.00;98847.03;10277790;28;20042;-79
2024/03/31 09:21:17;;;;;;;45.10;31.33;;;;;;;10.26;100.00;98840.47;10291121;28;20049;-78
2024/03/31 09:26:18;;;;;;;45.67;30.77;;;;;;;10.45;100.00;98836.69;10286203;28;20046;-78
2024/03/31 09:31:22;;;;;;;49.10;31.80;;;;;;;10.53;100.00;98831.34;10285907;28;20522;-80
2024/03/31 09:36:22;;;;;;;49.60;32.80;;;;;;;10.53;100.00;98820.59;10294067;28;20034;-80
2024/03/31 09:41:24;;;;;;;49.88;33.80;;;;;;;10.70;100.00;98819.69;10312859;28;20069;-80
2024/03/31 09:46:24;;;;;;;50.22;32.28;;;;;;;10.92;100.00;98809.31;10326512;28;20041;-79
2024/03/31 09:51:28;;;;;;;45.58;29.83;;;;;;;11.12;100.00;98807.16;10301425;28;20965;-80
2024/03/31 09:56:48;;;;;;;45.72;30.17;;;;;;;11.41;100.00;98798.63;10324716;28;20161;-80
2024/03/31 10:01:50;;;;;;;48.17;28.05;;;;;;;11.78;100.00;98805.34;10308418;28;20094;-81
2024/03/31 10:06:52;;;;;;;48.63;30.05;;;;;;;12.16;100.00;98782.22;10289122;28;20058;-81
2024/03/31 10:11:54;;;;;;;44.83;28.90;;;;;;;12.69;100.00;98777.94;10306554;28;20031;-80
2024/03/31 10:16:55;;;;;;;41.53;28.90;;;;;;;13.97;100.00;98750.28;10320316;28;20031;-79
2024/03/31 10:21:58;;;;;;;38.85;26.17;;;;;;;14.82;97.22;98738.91;10325249;28;20042;-77
2024/03/31 10:27:00;;;;;;;33.40;21.00;;;;;;;15.13;89.83;98729.63;10329167;28;20084;-80
2024/03/31 10:32:01;;;;;;;26.95;18.50;;;;;;;15.69;87.83;98735.13;10316591;28;20046;-78
2024/03/31 10:37:02;;;;;;;31.88;18.65;;;;;;;15.80;91.29;98741.03;10307559;28;20047;-79
2024/03/31 10:42:04;;;;;;;24.75;15.18;;;;;;;16.16;78.25;98727.28;10300469;28;20042;-80
2024/03/31 10:47:05;;;;;;;22.80;15.65;;;;;;;15.68;74.86;98743.44;10308394;28;20041;-78
2024/03/31 10:52:13;;;;;;;23.23;13.87;;;;;;;15.89;76.88;98732.53;10284201;28;20137;-80
2024/03/31 10:57:14;;;;;;;23.85;13.02;;;;;;;16.54;71.68;98730.41;10308177;28;20054;-81
2024/03/31 11:07:47;;;;;;;15.93;8.50;;;;;;;17.29;63.93;98724.09;10851658;23;20457;-79
2024/03/31 11:12:48;;;;;;;19.67;10.02;;;;;;;17.70;71.15;98715.72;10328535;28;20473;-80
2024/03/31 11:17:49;;;;;;;14.50;9.23;;;;;;;18.36;69.97;98723.72;10316961;28;20076;-81
2024/03/31 11:22:53;;;;;;;21.15;11.45;;;;;;;18.63;60.66;98717.34;10320637;28;20068;-82
2024/03/31 11:27:55;;;;;;;21.30;12.13;;;;;;;18.72;60.52;98713.31;10320674;28;20106;-81
2024/03/31 11:33:01;;;;;;;16.80;11.00;;;;;;;18.40;62.44;98723.28;10308063;28;20078;-80
2024/03/31 11:38:16;;;;;;;21.13;11.48;;;;;;;18.24;65.01;98719.16;10320275;28;20101;-81
2024/03/31 11:43:16;;;;;;;19.80;13.15;;;;;;;18.30;74.83;98715.59;10291155;28;20528;-80
2024/03/31 11:48:19;;;;;;;19.20;13.40;;;;;;;18.25;70.66;98702.66;10301692;28;20038;-80
2024/03/31 11:53:25;;;;;;;21.77;12.32;;;;;;;18.73;73.88;98699.50;10313241;28;20131;-78
2024/03/31 11:58:26;;;;;;;21.75;13.02;;;;;;;18.67;63.45;98697.63;10292837;28;20181;-81
2024/03/31 12:03:27;;;;;;;26.70;14.68;;;;;;;18.46;60.73;98685.22;10289991;28;20054;-81
2024/03/31 12:08:27;;;;;;;20.45;10.77;;;;;;;19.28;62.22;98681.75;10306225;28;20049;-82
2024/03/31 12:13:28;;;;;;;23.92;10.70;;;;;;;18.77;60.45;98683.56;10305631;28;20070;-82
2024/03/31 12:18:29;;;;;;;23.13;11.07;;;;;;;18.19;63.61;98692.66;10317339;28;20046;-80
2024/03/31 12:23:31;;;;;;;23.45;10.05;;;;;;;18.42;71.75;98672.25;10306627;28;20079;-82
2024/03/31 12:28:32;;;;;;;27.15;9.68;;;;;;;19.37;55.68;98675.81;10327649;28;20051;-81
2024/03/31 12:33:33;;;;;;;17.23;8.80;;;;;;;18.71;54.42;98679.00;10308914;28;20093;-79
2024/03/31 12:38:34;;;;;;;17.50;8.65;;;;;;;19.09;63.13;98667.25;10303258;28;20066;-81
2024/03/31 12:43:35;;;;;;;23.60;7.80;;;;;;;18.45;52.47;98674.53;10303390;28;20097;-81
2024/03/31 12:48:39;;;;;;;19.83;10.27;;;;;;;18.92;58.45;98661.53;10306964;28;20963;-80
2024/03/31 12:53:42;;;;;;;12.32;5.85;;;;;;;18.74;55.63;98660.38;10297486;28;20053;-79
2024/03/31 12:58:43;;;;;;;18.92;5.78;;;;;;;18.49;55.86;98659.50;10319193;28;20042;-81
2024/03/31 13:03:44;;;;;;;18.43;7.13;;;;;;;18.62;56.62;98651.22;10291977;28;20061;-79
2024/03/31 13:08:46;;;;;;;19.42;6.07;;;;;;;18.20;53.23;98641.84;10293285;28;20402;-81
2024/03/31 13:13:47;;;;;;;21.27;6.13;;;;;;;18.00;56.58;98641.94;10300799;28;20448;-81
2024/03/31 13:18:47;;;;;;;18.63;6.40;;;;;;;17.75;55.75;98629.03;10320585;28;20043;-80
2024/03/31 13:23:48;;;;;;;19.67;7.53;;;;;;;17.70;56.97;98631.56;10311831;28;20422;-81
2024/03/31 13:28:49;;;;;;;11.32;5.57;;;;;;;17.96;56.11;98633.34;10303547;28;20444;-82
2024/03/31 13:33:50;;;;;;;21.75;7.07;;;;;;;18.09;55.71;98632.50;10302960;28;20135;-80
2024/03/31 13:38:51;;;;;;;22.90;5.13;;;;;;;18.08;54.85;98623.50;10321684;28;20085;-81
2024/03/31 13:43:52;;;;;;;17.88;5.63;;;;;;;18.26;56.91;98625.50;10300815;28;20070;-80
2024/03/31 13:48:53;;;;;;;16.33;4.57;;;;;;;18.83;53.27;98619.34;10313257;28;20056;-81
2024/03/31 13:53:55;;;;;;;18.13;5.25;;;;;;;19.40;51.86;98610.03;10325377;28;20047;-82
2024/03/31 13:58:56;;;;;;;18.75;4.47;;;;;;;21.15;47.69;98596.63;10297817;28;20137;-82
2024/03/31 14:03:56;;;;;;;14.57;4.03;;;;;;;22.07;43.45;98599.50;10311626;28;20074;-81
2024/03/31 14:08:57;;;;;;;16.00;4.40;;;;;;;21.00;43.47;98606.06;10298263;28;20043;-81
2024/03/31 14:13:58;;;;;;;15.38;4.40;;;;;;;20.80;45.52;98600.13;10281452;28;20403;-82
2024/03/31 14:18:59;;;;;;;20.77;5.38;;;;;;;19.62;47.74;98599.56;10287633;28;20498;-81
2024/03/31 14:24:00;;;;;;;20.65;5.20;;;;;;;18.92;50.72;98591.63;10280113;28;20077;-78
2024/03/31 14:29:01;;;;;;;13.40;4.85;;;;;;;18.71;52.85;98587.38;10279986;28;20666;-79
2024/03/31 14:34:02;;;;;;;19.60;5.70;;;;;;;19.53;50.90;98589.16;10299307;28;20050;-79
2024/03/31 14:39:04;;;;;;;22.98;5.40;;;;;;;19.31;51.21;98573.28;10335061;28;20030;-79
2024/03/31 14:44:05;;;;;;;20.30;6.00;;;;;;;19.33;50.26;98562.97;10334865;28;20042;-78
2024/03/31 14:49:06;;;;;;;19.08;5.82;;;;;;;19.68;49.34;98556.97;10289711;28;20409;-81
2024/03/31 14:54:06;;;;;;;21.35;4.47;;;;;;;18.87;49.75;98538.94;10304841;28;20051;-80
2024/03/31 14:59:07;;;;;;;14.05;4.43;;;;;;;18.95;49.70;98538.66;10317983;28;20050;-80
2024/03/31 15:04:08;;;;;;;19.20;4.35;;;;;;;18.54;50.68;98534.59;10304719;28;20050;-81
2024/03/31 15:09:09;;;;;;;18.70;4.97;;;;;;;19.20;50.50;98527.78;10300412;28;20047;-79
2024/03/31 15:14:10;;;;;;;15.73;4.07;;;;;;;19.39;48.87;98520.41;10344162;28;20061;-80
2024/03/31 15:19:11;;;;;;;20.30;4.65;;;;;;;18.36;50.77;98511.72;10315295;28;20069;-80
2024/03/31 15:24:12;;;;;;;19.30;4.95;;;;;;;17.98;52.67;98519.91;10326811;28;20559;-79
2024/03/31 15:29:12;;;;;;;17.80;4.97;;;;;;;18.19;52.71;98523.38;10309999;28;20129;-79
2024/03/31 15:34:13;;;;;;;15.32;4.60;;;;;;;18.23;52.15;98517.25;10331220;28;20077;-79
2024/03/31 15:39:14;;;;;;;17.27;4.70;;;;;;;17.72;53.11;98491.00;10331472;28;20043;-79
2024/03/31 15:44:15;;;;;;;19.55;4.70;;;;;;;17.69;53.77;98494.97;10325739;28;20045;-78
2024/03/31 15:49:17;;;;;;;22.75;4.68;;;;;;;17.49;55.21;98496.94;10324874;28;20223;-78
2024/03/31 15:54:18;;;;;;;16.77;5.57;;;;;;;17.33;55.16;98495.53;10321021;28;20089;-79
2024/03/31 15:59:22;;;;;;;27.42;5.40;;;;;;;17.06;56.58;98488.47;10308359;28;20073;-79
2024/03/31 16:04:25;;;;;;;20.70;4.85;;;;;;;16.95;57.53;98487.25;10317769;28;20410;-78
2024/03/31 16:09:26;;;;;;;18.25;6.07;;;;;;;16.71;58.76;98467.91;10319875;28;20089;-78
2024/03/31 16:14:27;;;;;;;18.52;5.65;;;;;;;16.54;60.00;98470.22;10311659;28;20035;-78
2024/03/31 16:19:28;;;;;;;22.35;8.32;;;;;;;16.30;60.05;98466.25;10296591;28;20052;-79
2024/03/31 16:24:29;;;;;;;19.50;6.47;;;;;;;16.23;60.58;98467.25;10317757;28;20042;-78
2024/03/31 16:29:30;;;;;;;23.48;6.95;;;;;;;16.23;61.81;98451.84;10290485;28;20050;-78
2024/03/31 16:34:31;;;;;;;22.02;6.78;;;;;;;16.17;61.74;98443.72;10323364;28;20042;-80
2024/03/31 16:39:31;;;;;;;28.88;7.85;;;;;;;15.98;63.20;98448.91;10324317;28;20124;-80
2024/03/31 16:44:32;;;;;;;20.60;8.75;;;;;;;16.01;63.68;98453.91;10318018;28;20041;-78
2024/03/31 16:49:34;;;;;;;19.65;10.20;;;;;;;15.97;64.64;98446.44;10303817;28;20104;-80
2024/03/31 16:54:34;;;;;;;22.87;10.47;;;;;;;15.85;65.01;98438.06;10312401;28;20047;-77
2024/03/31 16:59:35;;;;;;;28.33;11.55;;;;;;;15.72;65.58;98435.34;10315612;28;20294;-79
2024/03/31 17:04:36;;;;;;;23.65;11.90;;;;;;;15.63;66.19;98435.53;10314726;28;20045;-78
2024/03/31 17:09:37;;;;;;;24.67;12.73;;;;;;;15.55;66.81;98448.41;10281973;28;20046;-78
2024/03/31 17:14:37;;;;;;;26.55;13.85;;;;;;;15.32;66.88;98452.25;10307122;28;20034;-77
2024/03/31 17:19:38;;;;;;;23.58;13.73;;;;;;;15.34;67.25;98452.06;10289524;28;20046;-78
2024/03/31 17:24:40;;;;;;;26.92;14.40;;;;;;;15.29;67.59;98460.75;10292027;28;20061;-77
2024/03/31 17:29:40;;;;;;;32.33;14.13;;;;;;;15.14;67.29;98460.91;10308130;28;20053;-77
2024/03/31 17:34:41;;;;;;;30.02;16.50;;;;;;;15.07;66.84;98465.44;10306445;28;20086;-78
2024/03/31 17:39:42;;;;;;;31.40;17.25;;;;;;;15.02;67.72;98465.19;10308452;28;20105;-78
2024/03/31 17:44:47;;;;;;;38.00;18.65;;;;;;;14.90;68.36;98464.94;10316732;28;20034;-79
2024/03/31 17:49:50;;;;;;;36.45;20.42;;;;;;;14.78;68.79;98464.66;10320692;28;20100;-80
2024/03/31 17:54:52;;;;;;;43.60;26.50;;;;;;;14.74;69.28;98462.53;10309919;28;20054;-79
2024/03/31 17:59:53;;;;;;;45.90;28.60;;;;;;;14.71;69.98;98462.94;10314867;28;20053;-78
2024/03/31 18:04:54;;;;;;;79.47;44.00;;;;;;;14.64;70.47;98443.16;10312848;28;20106;-79
2024/03/31 18:09:55;;;;;;;54.35;29.55;;;;;;;14.45;71.61;98445.50;10299893;28;20042;-79
2024/03/31 18:14:56;;;;;;;49.22;26.75;;;;;;;14.44;71.76;98443.84;10316465;28;20138;-78
2024/03/31 18:19:56;;;;;;;55.88;32.85;;;;;;;14.41;72.09;98438.00;10312381;28;20568;-79
2024/03/31 18:25:01;;;;;;;69.10;40.45;;;;;;;14.34;72.72;98440.59;10304854;28;20441;-78
2024/03/31 18:30:02;;;;;;;86.60;47.37;;;;;;;14.31;72.88;98452.63;10326416;28;20046;-78
2024/03/31 18:35:04;;;;;;;131.03;72.23;;;;;;;14.30;73.20;98466.34;10303431;28;20039;-78
2024/03/31 18:40:05;;;;;;;111.80;63.33;;;;;;;14.30;73.22;98467.19;10313993;28;20042;-78
2024/03/31 18:45:09;;;;;;;89.10;52.85;;;;;;;14.30;73.48;98469.88;10317994;28;20047;-78
2024/03/31 18:50:10;;;;;;;97.35;54.38;;;;;;;14.28;73.88;98476.50;10327132;28;20497;-77
2024/03/31 18:55:12;;;;;;;67.97;39.45;;;;;;;14.06;75.06;98481.06;10324630;28;20050;-78
2024/03/31 19:00:14;;;;;;;58.60;32.20;;;;;;;14.07;75.09;98467.41;10310759;28;20038;-78
2024/03/31 19:05:15;;;;;;;116.82;65.30;;;;;;;13.92;78.77;98472.00;10329686;28;20035;-77
2024/03/31 19:10:16;;;;;;;117.80;63.50;;;;;;;13.89;80.85;98451.66;10323003;28;20046;-77
2024/03/31 19:15:18;;;;;;;87.22;49.80;;;;;;;13.87;82.03;98451.00;10296504;28;20042;-79
2024/03/31 19:20:18;;;;;;;76.88;45.08;;;;;;;13.84;82.66;98451.38;10325747;28;20038;-77
2024/03/31 19:25:19;;;;;;;72.18;39.22;;;;;;;13.86;81.53;98454.72;10334631;28;20042;-78
2024/03/31 19:30:20;;;;;;;76.18;41.58;;;;;;;13.85;80.35;98439.59;10335020;28;20092;-79
2024/03/31 19:35:21;;;;;;;81.95;47.53;;;;;;;13.76;81.42;98432.63;10315600;28;20046;-78
2024/03/31 19:40:22;;;;;;;99.50;59.88;;;;;;;13.64;80.68;98413.41;10335407;28;20049;-79
2024/03/31 19:45:23;;;;;;;86.75;50.95;;;;;;;13.60;80.38;98411.28;10334894;28;20027;-78
2024/03/31 19:50:24;;;;;;;60.70;34.67;;;;;;;13.53;79.65;98413.09;10333148;28;20524;-77
2024/03/31 19:55:25;;;;;;;41.03;21.67;;;;;;;13.42;78.23;98425.22;10332058;28;20050;-77
2024/03/31 20:00:26;;;;;;;39.60;21.88;;;;;;;13.60;76.16;98430.16;10293696;28;20068;-78
2024/03/31 20:05:28;;;;;;;47.67;21.35;;;;;;;13.48;75.78;98427.97;10329765;28;20042;-79
2024/03/31 20:10:29;;;;;;;58.60;25.27;;;;;;;13.54;75.36;98425.53;10306513;28;20046;-78
2024/03/31 20:15:35;;;;;;;62.45;30.95;;;;;;;13.41;75.85;98434.31;10328030;28;20039;-79
2024/03/31 20:20:36;;;;;;;52.00;30.05;;;;;;;13.43;75.26;98434.97;10318304;28;20069;-81
2024/03/31 20:25:37;;;;;;;46.10;27.13;;;;;;;13.30;75.18;98451.78;10330410;28;20042;-77
2024/03/31 20:30:38;;;;;;;51.63;27.17;;;;;;;13.53;74.27;98440.06;10296975;28;20042;-78
2024/03/31 20:35:40;;;;;;;53.10;28.38;;;;;;;13.26;75.04;98450.50;10314795;28;20413;-79
2024/03/31 20:40:41;;;;;;;44.78;25.90;;;;;;;13.37;74.73;98446.53;10293220;28;20061;-78
2024/03/31 20:45:42;;;;;;;53.90;25.48;;;;;;;13.28;75.48;98454.69;10311492;28;20042;-78
2024/03/31 20:50:53;;;;;;;42.22;22.45;;;;;;;13.28;75.19;98470.84;10289350;28;20133;-78
2024/03/31 20:56:01;;;;;;;47.67;23.75;;;;;;;12.40;81.92;98487.84;10327178;28;20035;-79
2024/03/31 21:01:19;;;;;;;48.35;25.48;;;;;;;12.94;79.33;98476.81;10328546;28;20119;-77
2024/03/31 21:06:20;;;;;;;52.67;26.75;;;;;;;13.14;77.32;98469.03;10312270;28;20030;-79
2024/03/31 21:11:22;;;;;;;44.83;26.08;;;;;;;12.95;78.05;98462.34;10322922;28;20294;-79
2024/03/31 21:16:25;;;;;;;46.37;25.30;;;;;;;12.98;77.98;98443.09;10328336;28;20417;-78
2024/03/31 21:21:28;;;;;;;47.10;25.70;;;;;;;12.98;77.87;98448.50;10341014;28;20077;-80
2024/03/31 21:26:29;;;;;;;52.40;26.75;;;;;;;12.95;77.97;98446.19;10319065;28;20060;-78
2024/03/31 21:31:30;;;;;;;50.47;25.50;;;;;;;12.79;78.42;98457.13;10315710;28;20479;-79
2024/03/31 21:36:31;;;;;;;38.50;24.45;;;;;;;12.63;79.91;98446.53;10330970;28;20045;-79
2024/03/31 21:41:32;;;;;;;41.83;25.60;;;;;;;12.65;79.97;98449.91;10327597;28;20059;-80
2024/03/31 21:46:33;;;;;;;50.17;27.52;;;;;;;12.74;80.18;98459.53;10298496;28;20413;-78
2024/03/31 21:51:34;;;;;;;47.15;25.35;;;;;;;12.78;79.69;98459.00;10305787;28;20041;-80
2024/03/31 21:56:35;;;;;;;48.55;25.98;;;;;;;12.67;79.32;98437.06;10318974;28;20129;-79
2024/03/31 22:01:36;;;;;;;51.65;25.73;;;;;;;12.41;80.22;98435.66;10310959;28;20061;-79
2024/03/31 22:06:37;;;;;;;48.33;26.08;;;;;;;12.33;80.75;98412.34;10308749;28;20034;-80
2024/03/31 22:11:38;;;;;;;46.20;26.02;;;;;;;12.25;81.48;98422.31;10311232;28;20038;-79
2024/03/31 22:16:39;;;;;;;48.47;27.90;;;;;;;12.17;81.54;98420.53;10311218;28;20039;-78
2024/03/31 22:21:40;;;;;;;54.50;33.13;;;;;;;11.94;82.09;98420.56;10318340;28;20061;-78
2024/03/31 22:26:40;;;;;;;65.18;37.08;;;;;;;11.88;82.76;98407.84;10328880;28;20042;-79
2024/03/31 22:31:41;;;;;;;108.55;47.20;;;;;;;11.81;83.71;98410.41;10302536;28;20065;-79
2024/03/31 22:36:43;;;;;;;97.45;46.58;;;;;;;11.78;83.71;98388.44;10311786;28;20061;-79
2024/03/31 22:41:44;;;;;;;80.47;38.03;;;;;;;11.75;83.64;98373.47;10313518;28;20387;-79
2024/03/31 22:46:47;;;;;;;57.30;31.73;;;;;;;11.70;83.61;98368.63;10322361;28;20050;-78
2024/03/31 22:51:48;;;;;;;60.92;34.30;;;;;;;11.64;84.08;98374.75;10302454;28;20685;-79
2024/03/31 22:56:49;;;;;;;62.30;35.33;;;;;;;11.63;84.05;98369.56;10324018;28;20043;-79
2024/03/31 23:01:50;;;;;;;61.60;33.30;;;;;;;11.75;84.04;98380.72;10308937;28;20046;-82